createdAt,value
2018-03-07T07:14:59.694Z,22.07
2018-03-07T07:17:28.116Z,51.17
2018-03-07T07:19:56.495Z,91.77
2018-03-07T07:22:25.580Z,101.33
2018-03-07T07:24:53.790Z,102.27
2018-03-07T07:27:22.118Z,91.37
2018-03-07T07:29:50.993Z,89.53
2018-03-07T07:32:29.654Z,86.77
2018-03-07T07:38:00.586Z,85.17
2018-03-07T07:43:25.914Z,85.73
2018-03-07T07:46:02.484Z,80.67
2018-03-07T07:48:32.488Z,82.50
2018-03-07T07:51:00.768Z,89.37
2018-03-07T07:53:33.903Z,89.20
2018-03-07T07:56:02.229Z,88.63
2018-03-07T07:58:31.133Z,84.90
2018-03-07T08:00:59.309Z,85.93
2018-03-07T08:03:27.654Z,90.07
2018-03-07T08:05:55.920Z,89.33
2018-03-07T08:08:24.741Z,87.73
2018-03-07T08:10:52.592Z,81.40
2018-03-07T08:13:20.992Z,74.57
2018-03-07T08:15:49.041Z,73.80
2018-03-07T08:18:17.941Z,67.43
2018-03-07T08:20:46.914Z,62.30
2018-03-07T08:23:14.891Z,79.93
2018-03-07T08:25:43.774Z,86.23
2018-03-07T08:28:12.589Z,94.97
2018-03-07T08:30:40.664Z,93.30
2018-03-07T08:33:08.905Z,89.37
2018-03-07T08:35:42.506Z,92.72
2018-03-07T08:38:10.828Z,91.33
2018-03-07T08:40:38.938Z,80.57
2018-03-07T08:43:07.337Z,74.50
2018-03-07T08:45:36.243Z,69.33
2018-03-07T08:48:04.383Z,72.57
2018-03-07T08:50:32.401Z,68.07
2018-03-07T08:53:00.779Z,67.40
2018-03-07T08:55:28.992Z,66.73
2018-03-07T08:57:56.875Z,63.03
2018-03-07T09:00:25.945Z,59.00
2018-03-07T09:02:53.993Z,61.73
2018-03-07T09:05:22.045Z,63.10
2018-03-07T09:07:50.146Z,59.93
2018-03-07T09:10:18.247Z,57.63
2018-03-07T09:12:47.694Z,61.03
2018-03-07T09:15:16.841Z,62.67
2018-03-07T09:17:45.250Z,57.07
2018-03-07T09:20:13.366Z,55.47
2018-03-07T09:22:42.071Z,55.60
2018-03-07T09:25:10.754Z,58.77
2018-03-07T09:27:39.039Z,61.67
2018-03-07T09:30:07.854Z,55.17
2018-03-07T09:32:36.423Z,56.37
2018-03-07T09:35:07.443Z,56.77
2018-03-07T09:37:40.847Z,58.77
2018-03-07T09:40:08.747Z,56.77
2018-03-07T09:42:37.634Z,57.10
2018-03-07T09:45:05.722Z,58.10
2018-03-07T09:47:33.624Z,57.77
2018-03-07T09:50:02.409Z,55.10
2018-03-07T09:52:30.969Z,55.70
2018-03-07T09:54:59.224Z,59.20
2018-03-07T09:57:27.137Z,55.73
2018-03-07T09:59:55.204Z,53.27
2018-03-07T10:02:25.286Z,57.73
2018-03-07T10:04:53.581Z,56.13
2018-03-07T10:07:22.474Z,55.43
2018-03-07T10:09:50.288Z,56.53
2018-03-07T10:12:18.627Z,55.03
2018-03-07T10:14:47.225Z,61.60
2018-03-07T10:17:15.572Z,58.07
2018-03-07T10:19:44.060Z,59.33
2018-03-07T10:22:11.988Z,58.30
2018-03-07T10:24:40.393Z,54.27
2018-03-07T10:27:08.835Z,57.53
2018-03-07T10:29:37.064Z,56.93
2018-03-07T10:32:05.831Z,58.23
2018-03-07T10:34:34.069Z,54.97
2018-03-07T10:37:01.973Z,57.67
2018-03-07T10:39:30.652Z,60.33
2018-03-07T10:41:58.692Z,57.13
2018-03-07T10:44:26.801Z,64.60
2018-03-07T10:46:54.942Z,56.63
2018-03-07T10:49:24.119Z,54.43
2018-03-07T10:54:44.986Z,58.27
2018-03-07T10:57:13.417Z,56.97
2018-03-07T10:59:41.697Z,58.67
2018-03-07T11:02:10.092Z,53.40
2018-03-07T11:04:38.411Z,52.10
2018-03-07T12:02:03.750Z,59.03
2018-03-07T12:07:49.505Z,53.40
2018-03-07T12:19:18.688Z,53.57
2018-03-07T12:35:06.916Z,55.30
2018-03-07T12:38:41.945Z,54.97
2018-03-07T12:44:16.581Z,61.13
2018-03-07T12:46:57.172Z,58.80
2018-03-07T12:49:41.504Z,54.00
2018-03-07T13:03:42.004Z,57.00
2018-03-07T13:06:47.102Z,57.90
2018-03-07T13:09:22.638Z,56.17
2018-03-07T13:12:06.529Z,56.93
2018-03-07T13:14:48.196Z,56.50
2018-03-07T13:23:02.388Z,59.83
2018-03-07T13:52:46.913Z,65.57
2018-03-07T14:00:54.303Z,62.20
2018-03-07T14:03:48.923Z,61.73
2018-03-07T14:15:04.774Z,55.37
2018-03-07T14:17:58.067Z,54.37
2018-03-07T14:54:27.387Z,47.00
2018-03-07T14:57:09.815Z,44.97
2018-03-07T15:00:00.034Z,48.80
2018-03-07T15:11:34.307Z,44.13
2018-03-07T15:20:09.888Z,44.10
2018-03-07T15:49:46.638Z,42.73
